createdAt,value
2023-04-15T00:01:46.831Z,99709.84
2023-04-15T00:04:13.344Z,99720.38
2023-04-15T00:06:54.920Z,99718.09
2023-04-15T00:09:21.722Z,99713.50
2023-04-15T00:11:48.163Z,99714.25
2023-04-15T00:14:14.569Z,99707.16
2023-04-15T00:16:41.316Z,99705.09
2023-04-15T00:19:07.713Z,99712.69
2023-04-15T00:21:34.056Z,99709.09
2023-04-15T00:24:01.106Z,99709.19
2023-04-15T00:26:27.841Z,99706.28
2023-04-15T00:28:54.281Z,99703.31
2023-04-15T00:31:20.940Z,99698.94
2023-04-15T00:33:47.834Z,99702.97
2023-04-15T00:36:14.557Z,99699.06
2023-04-15T00:38:41.345Z,99688.69
2023-04-15T00:41:09.002Z,99696.31
2023-04-15T00:43:35.659Z,99686.16
2023-04-15T00:46:04.802Z,99686.78
2023-04-15T00:48:32.201Z,99688.56
2023-04-15T00:50:59.095Z,99687.25
2023-04-15T00:53:25.784Z,99693.53
2023-04-15T00:55:52.597Z,99689.66
2023-04-15T00:58:19.198Z,99701.25
2023-04-15T01:00:46.142Z,99692.06
2023-04-15T01:03:12.692Z,99695.34
2023-04-15T01:05:39.420Z,99695.09
2023-04-15T01:08:06.155Z,99695.72
2023-04-15T01:10:33.374Z,99690.88
2023-04-15T01:13:00.076Z,99689.88
2023-04-15T01:15:26.559Z,99691.59
2023-04-15T01:17:53.102Z,99691.34
2023-04-15T01:20:20.228Z,99692.31
2023-04-15T01:22:46.616Z,99685.41
2023-04-15T01:25:18.567Z,99695.81
2023-04-15T01:27:45.265Z,99695.84
2023-04-15T01:30:12.109Z,99691.72
2023-04-15T01:32:38.579Z,99698.13
2023-04-15T01:35:05.373Z,99690.41
2023-04-15T01:37:32.545Z,99700.88
2023-04-15T01:39:58.940Z,99699.19
2023-04-15T01:42:25.308Z,99699.19
2023-04-15T01:44:51.955Z,99703.28
2023-04-15T01:47:18.619Z,99710.88
2023-04-15T01:49:44.952Z,99702.66
2023-04-15T01:52:11.273Z,99702.78
2023-04-15T01:54:37.684Z,99699.03
2023-04-15T01:57:05.530Z,99703.63
2023-04-15T01:59:32.065Z,99697.66
2023-04-15T02:01:58.737Z,99691.63
2023-04-15T02:04:25.086Z,99703.72
2023-04-15T02:06:51.501Z,99703.63
2023-04-15T02:09:17.813Z,99702.75
2023-04-15T02:11:44.800Z,99705.03
2023-04-15T02:14:11.126Z,99706.47
2023-04-15T02:16:37.671Z,99702.75
2023-04-15T02:19:04.352Z,99702.66
2023-04-15T02:21:30.797Z,99709.03
2023-04-15T02:23:57.492Z,99701.06
2023-04-15T02:26:25.230Z,99698.63
2023-04-15T02:28:51.690Z,99699.34
2023-04-15T02:31:18.170Z,99699.47
2023-04-15T02:33:44.778Z,99695.72
2023-04-15T02:36:12.347Z,99700.81
2023-04-15T02:38:40.673Z,99708.03
2023-04-15T02:41:07.036Z,99691.75
2023-04-15T02:43:33.431Z,99690.63
2023-04-15T02:45:59.863Z,99710.53
2023-04-15T02:48:26.207Z,99708.31
2023-04-15T02:50:52.946Z,99704.94
2023-04-15T02:53:19.913Z,99705.91
2023-04-15T02:55:46.464Z,99703.50
2023-04-15T02:58:12.861Z,99703.63
2023-04-15T03:00:39.175Z,99701.41
2023-04-15T03:03:06.428Z,99716.25
2023-04-15T03:05:33.288Z,99715.53
2023-04-15T03:08:01.020Z,99716.81
2023-04-15T03:10:27.365Z,99724.22
2023-04-15T03:12:53.917Z,99706.28
2023-04-15T03:15:20.304Z,99719.06
2023-04-15T03:17:48.036Z,99714.13
2023-04-15T03:20:14.513Z,99720.78
2023-04-15T03:22:40.957Z,99711.75
2023-04-15T03:25:07.632Z,99711.63
2023-04-15T03:27:34.019Z,99721.28
2023-04-15T03:30:00.548Z,99712.59
2023-04-15T03:32:27.175Z,99717.91
2023-04-15T03:34:53.549Z,99718.00
2023-04-15T03:37:19.883Z,99717.03
2023-04-15T03:39:46.749Z,99725.72
2023-04-15T03:42:13.081Z,99716.31
2023-04-15T03:44:39.441Z,99717.59
2023-04-15T03:47:06.027Z,99718.34
2023-04-15T03:49:32.447Z,99720.91
2023-04-15T03:51:59.624Z,99711.47
2023-04-15T03:54:25.958Z,99719.69
2023-04-15T03:56:52.332Z,99713.91
2023-04-15T03:59:18.677Z,99710.28
2023-04-15T04:01:45.074Z,99709.44
2023-04-15T04:04:11.607Z,99705.47
2023-04-15T04:06:38.098Z,99709.09
2023-04-15T04:09:04.459Z,99711.63
2023-04-15T04:11:31.642Z,99708.00
2023-04-15T04:13:57.987Z,99702.22
2023-04-15T04:16:24.545Z,99703.91
2023-04-15T04:18:51.231Z,99709.50
2023-04-15T04:21:17.668Z,99710.94
2023-04-15T04:23:44.021Z,99711.59
2023-04-15T04:26:10.490Z,99709.97
2023-04-15T04:28:36.878Z,99710.09
2023-04-15T04:31:03.320Z,99716.81
2023-04-15T04:33:29.814Z,99713.66
2023-04-15T04:35:56.155Z,99714.50
2023-04-15T04:38:22.496Z,99720.13
2023-04-15T04:40:48.827Z,99712.19
2023-04-15T04:43:15.922Z,99716.09
2023-04-15T04:45:42.799Z,99719.22
2023-04-15T04:48:10.445Z,99711.47
2023-04-15T04:50:36.984Z,99718.84
2023-04-15T04:53:03.408Z,99719.25
2023-04-15T04:55:30.125Z,99723.59
2023-04-15T04:57:56.667Z,99721.91
2023-04-15T05:00:23.123Z,99720.44
2023-04-15T05:02:49.690Z,99727.66
2023-04-15T05:05:16.234Z,99734.88
2023-04-15T05:07:42.632Z,99732.47
2023-04-15T05:10:09.419Z,99739.16
2023-04-15T05:12:37.393Z,99736.00
2023-04-15T05:15:05.229Z,99742.38
2023-04-15T05:17:33.280Z,99738.53
2023-04-15T05:19:59.642Z,99732.91
2023-04-15T05:22:26.176Z,99744.25
2023-04-15T05:24:52.553Z,99740.97
2023-04-15T05:27:19.175Z,99746.81
2023-04-15T05:29:46.077Z,99743.41
2023-04-15T05:32:12.514Z,99752.84
2023-04-15T05:34:38.866Z,99751.91
2023-04-15T05:37:05.157Z,99759.97
2023-04-15T05:39:32.647Z,99758.88
2023-04-15T05:41:59.832Z,99761.44
2023-04-15T05:44:26.936Z,99762.28
2023-04-15T05:46:53.339Z,99765.78
2023-04-15T05:49:19.639Z,99768.34
2023-04-15T05:51:47.558Z,99764.19
2023-04-15T05:54:13.896Z,99779.91
2023-04-15T05:56:40.459Z,99769.06
2023-04-15T05:59:07.476Z,99771.94
2023-04-15T06:01:34.769Z,99775.44
2023-04-15T06:04:01.781Z,99774.91
2023-04-15T06:06:28.516Z,99771.16
2023-04-15T06:08:55.820Z,99770.09
2023-04-15T06:11:22.416Z,99770.63
2023-04-15T06:13:48.897Z,99768.09
2023-04-15T06:16:15.652Z,99761.59
2023-04-15T06:18:42.095Z,99770.78
2023-04-15T06:21:08.501Z,99778.31
2023-04-15T06:23:36.209Z,99777.41
2023-04-15T06:26:03.629Z,99779.38
2023-04-15T06:28:30.018Z,99787.06
2023-04-15T06:30:56.553Z,99796.88
2023-04-15T06:33:22.917Z,99793.13
2023-04-15T06:35:49.656Z,99788.34
2023-04-15T06:38:16.417Z,99791.28
2023-04-15T06:40:42.955Z,99779.34
2023-04-15T06:43:09.327Z,99786.09
2023-04-15T06:45:35.772Z,99807.28
2023-04-15T06:48:02.162Z,99807.69
2023-04-15T06:50:28.563Z,99805.91
2023-04-15T06:52:56.146Z,99810.75
2023-04-15T06:55:22.707Z,99811.00
2023-04-15T06:57:49.110Z,99805.31
2023-04-15T07:00:15.655Z,99810.75
2023-04-15T07:02:42.146Z,99810.00
2023-04-15T07:05:08.834Z,99799.03
2023-04-15T07:07:36.102Z,99807.31
2023-04-15T07:10:03.368Z,99798.47
2023-04-15T07:12:29.793Z,99801.88
2023-04-15T07:14:56.214Z,99800.06
2023-04-15T07:17:22.595Z,99800.03
2023-04-15T07:19:49.265Z,99805.75
2023-04-15T07:22:15.948Z,99797.25
2023-04-15T07:24:42.522Z,99796.75
2023-04-15T07:27:08.929Z,99807.34
2023-04-15T07:29:35.371Z,99806.00
2023-04-15T07:32:01.769Z,99812.22
2023-04-15T07:34:29.268Z,99803.38
2023-04-15T07:36:57.180Z,99804.22
2023-04-15T07:39:23.514Z,99803.94
2023-04-15T07:41:50.015Z,99809.16
2023-04-15T07:44:16.644Z,99813.69
2023-04-15T07:46:43.191Z,99812.66
2023-04-15T07:49:09.634Z,99807.09
2023-04-15T07:51:36.097Z,99800.75
2023-04-15T07:54:03.140Z,99809.72
2023-04-15T07:56:29.690Z,99809.41
2023-04-15T07:58:56.076Z,99808.38
2023-04-15T08:01:22.685Z,99809.53
2023-04-15T08:03:49.239Z,99803.88
2023-04-15T08:06:15.828Z,99785.75
2023-04-15T08:08:43.079Z,99797.75
2023-04-15T08:11:09.650Z,99803.31
2023-04-15T08:13:35.989Z,99803.81
2023-04-15T08:16:18.829Z,99802.19
2023-04-15T08:18:47.215Z,99804.22
2023-04-15T08:21:14.012Z,99793.09
2023-04-15T08:23:40.872Z,99796.28
2023-04-15T08:26:08.589Z,99803.09
2023-04-15T08:28:35.040Z,99801.81
2023-04-15T08:31:01.676Z,99800.91
2023-04-15T08:33:28.868Z,99801.00
2023-04-15T08:35:55.244Z,99803.31
2023-04-15T08:38:21.581Z,99807.16
2023-04-15T08:40:48.053Z,99785.88
2023-04-15T08:43:26.921Z,99808.50
2023-04-15T08:45:53.436Z,99805.31
2023-04-15T08:48:20.485Z,99803.84
2023-04-15T08:50:47.818Z,99806.34
2023-04-15T08:53:15.486Z,99808.72
2023-04-15T08:55:45.645Z,99805.03
2023-04-15T08:58:15.608Z,99802.81
2023-04-15T09:00:42.536Z,99804.13
2023-04-15T09:03:09.631Z,99811.81
2023-04-15T09:05:37.205Z,99806.47
2023-04-15T09:08:04.704Z,99811.88
2023-04-15T09:10:32.661Z,99810.31
2023-04-15T09:12:59.452Z,99805.75
2023-04-15T09:15:27.574Z,99820.09
2023-04-15T09:17:54.180Z,99810.16
2023-04-15T09:20:20.937Z,99811.63
2023-04-15T09:22:48.925Z,99804.69
2023-04-15T09:25:15.180Z,99811.88
2023-04-15T09:27:49.478Z,99824.03
2023-04-15T09:30:16.663Z,99825.91
2023-04-15T09:32:50.067Z,99823.09
2023-04-15T09:35:16.847Z,99824.03
2023-04-15T09:37:43.204Z,99826.72
2023-04-15T09:40:10.115Z,99828.72
2023-04-15T09:42:37.642Z,99827.09
2023-04-15T09:45:13.152Z,99835.59
2023-04-15T09:47:39.458Z,99831.94
2023-04-15T09:50:06.211Z,99839.47
2023-04-15T09:52:32.666Z,99828.63
2023-04-15T09:55:00.144Z,99835.16
2023-04-15T09:57:38.424Z,99825.69
2023-04-15T10:00:08.003Z,99833.47
2023-04-15T10:02:35.455Z,99827.13
2023-04-15T10:05:03.154Z,99833.97
2023-04-15T10:07:29.709Z,99833.78
2023-04-15T10:09:57.104Z,99836.28
2023-04-15T10:12:23.585Z,99835.72
2023-04-15T10:14:59.302Z,99843.44
2023-04-15T10:17:31.197Z,99845.63
2023-04-15T10:20:00.468Z,99845.28
2023-04-15T10:22:28.098Z,99841.22
2023-04-15T10:24:56.146Z,99837.09
2023-04-15T10:27:23.353Z,99844.72
2023-04-15T10:29:50.891Z,99857.06
2023-04-15T10:32:21.799Z,99857.06
2023-04-15T10:34:49.555Z,99848.34
2023-04-15T10:37:22.769Z,99854.06
2023-04-15T10:39:49.484Z,99837.13
2023-04-15T10:42:17.669Z,99857.78
2023-04-15T10:44:51.474Z,99861.66
2023-04-15T10:47:20.334Z,99863.44
2023-04-15T10:49:52.639Z,99869.06
2023-04-15T10:52:24.185Z,99871.53
2023-04-15T10:54:50.689Z,99873.25
2023-04-15T10:57:22.531Z,99875.81
2023-04-15T10:59:58.654Z,99877.72
2023-04-15T11:02:58.912Z,99875.75
2023-04-15T11:05:44.212Z,99890.00
2023-04-15T11:08:11.214Z,99891.25
2023-04-15T11:10:37.482Z,99896.47
2023-04-15T11:13:14.695Z,99888.78
2023-04-15T11:15:42.922Z,99890.13
2023-04-15T11:18:17.774Z,99893.44
2023-04-15T11:20:50.628Z,99884.38
2023-04-15T11:23:28.692Z,99893.28
2023-04-15T11:25:57.113Z,99892.75
2023-04-15T11:28:27.582Z,99885.50
2023-04-15T11:30:55.763Z,99889.44
2023-04-15T11:33:23.861Z,99880.13
2023-04-15T11:35:52.684Z,99895.25
2023-04-15T11:38:19.388Z,99883.66
2023-04-15T11:40:47.247Z,99896.50
2023-04-15T11:43:20.255Z,99898.50
2023-04-15T11:45:54.150Z,99906.19
2023-04-15T11:48:23.437Z,99905.66
2023-04-15T11:50:54.956Z,99898.75
2023-04-15T11:53:21.653Z,99913.59
2023-04-15T11:55:50.436Z,99909.34
2023-04-15T11:58:16.954Z,99920.97
2023-04-15T12:00:54.155Z,99908.84
2023-04-15T12:03:26.012Z,99921.69
2023-04-15T12:06:12.674Z,99922.06
2023-04-15T12:09:04.626Z,99922.22
2023-04-15T12:11:38.277Z,99928.13
2023-04-15T12:14:24.397Z,99928.47
2023-04-15T12:16:54.129Z,99934.25
2023-04-15T12:19:26.358Z,99929.06
2023-04-15T12:21:59.968Z,99934.09
2023-04-15T12:24:26.868Z,99947.41
2023-04-15T12:26:57.974Z,99941.53
2023-04-15T12:29:29.060Z,99953.16
2023-04-15T12:32:11.118Z,99955.81
2023-04-15T12:34:40.399Z,99964.25
2023-04-15T12:37:12.168Z,99964.91
2023-04-15T12:39:40.962Z,99964.25
2023-04-15T12:42:08.747Z,99973.50
2023-04-15T12:44:36.227Z,99973.53
2023-04-15T12:47:03.476Z,99973.03
2023-04-15T12:49:31.039Z,99980.44
2023-04-15T12:52:01.879Z,99984.44
2023-04-15T12:54:29.555Z,99974.19
2023-04-15T12:56:56.645Z,99991.91
2023-04-15T13:01:51.935Z,99982.59
2023-04-15T13:04:19.386Z,99992.69
2023-04-15T13:06:45.947Z,99993.19
2023-04-15T13:09:12.298Z,100002.13
2023-04-15T13:11:38.739Z,99999.13
2023-04-15T13:14:07.122Z,99999.31
2023-04-15T13:16:34.504Z,100000.66
2023-04-15T13:19:02.288Z,100005.72
2023-04-15T13:21:28.844Z,100005.38
2023-04-15T13:23:55.629Z,100003.69
2023-04-15T13:26:22.130Z,100021.69
2023-04-15T13:28:48.511Z,100017.13
2023-04-15T13:31:15.029Z,100026.00
2023-04-15T13:33:41.456Z,100034.72
2023-04-15T13:36:08.306Z,100034.25
2023-04-15T13:38:34.943Z,100043.69
2023-04-15T13:41:01.465Z,100049.75
2023-04-15T13:43:27.876Z,100052.03
2023-04-15T13:45:54.351Z,100050.75
2023-04-15T13:48:20.801Z,100042.38
2023-04-15T13:50:47.125Z,100062.50
2023-04-15T13:53:15.419Z,100065.75
2023-04-15T13:55:42.722Z,100067.00
2023-04-15T13:58:09.962Z,100070.16
2023-04-15T14:00:36.395Z,100065.63
2023-04-15T14:03:02.930Z,100076.38
2023-04-15T14:05:29.472Z,100084.53
2023-04-15T14:07:55.800Z,100082.00
2023-04-15T14:10:22.137Z,100086.75
2023-04-15T14:12:48.517Z,100086.50
2023-04-15T14:15:15.013Z,100095.88
2023-04-15T14:17:42.461Z,100098.63
2023-04-15T14:20:09.742Z,100102.66
2023-04-15T14:22:36.266Z,100107.47
2023-04-15T14:25:02.813Z,100109.91
2023-04-15T14:27:29.181Z,100093.59
2023-04-15T14:29:55.629Z,100110.50
2023-04-15T14:32:21.991Z,100120.13
2023-04-15T14:34:48.352Z,100118.28
2023-04-15T14:37:14.799Z,100123.22
2023-04-15T14:39:41.217Z,100127.09
2023-04-15T14:42:07.765Z,100125.53
2023-04-15T14:44:34.197Z,100134.16
2023-04-15T14:47:00.772Z,100137.09
2023-04-15T14:49:27.249Z,100140.53
2023-04-15T14:51:53.577Z,100137.97
2023-04-15T14:54:21.898Z,100147.16
2023-04-15T14:56:48.719Z,100151.84
2023-04-15T14:59:15.267Z,100150.00
2023-04-15T15:01:41.679Z,100153.09
2023-04-15T15:04:10.260Z,100156.34
2023-04-15T15:06:36.740Z,100163.13
2023-04-15T15:09:03.660Z,100164.56
2023-04-15T15:11:30.325Z,100172.88
2023-04-15T15:13:57.005Z,100170.34
2023-04-15T15:16:23.510Z,100169.22
2023-04-15T15:18:51.197Z,100182.78
2023-04-15T15:21:17.940Z,100183.19
2023-04-15T15:23:44.830Z,100182.63
2023-04-15T15:26:12.267Z,100171.91
2023-04-15T15:28:38.667Z,100190.69
2023-04-15T15:31:05.484Z,100185.50
2023-04-15T15:33:31.948Z,100190.56
2023-04-15T15:35:58.711Z,100189.13
2023-04-15T15:38:25.079Z,100196.47
2023-04-15T15:40:52.038Z,100191.97
2023-04-15T15:43:18.492Z,100204.13
2023-04-15T15:45:45.293Z,100208.06
2023-04-15T15:48:11.735Z,100214.56
2023-04-15T15:50:38.105Z,100220.75
2023-04-15T15:53:04.460Z,100212.28
2023-04-15T15:55:30.796Z,100214.69
2023-04-15T15:57:57.102Z,100223.00
2023-04-15T16:00:23.497Z,100233.59
2023-04-15T16:03:06.228Z,100232.47
2023-04-15T16:05:34.730Z,100234.28
2023-04-15T16:08:01.124Z,100227.50
2023-04-15T16:10:27.930Z,100223.84
2023-04-15T16:12:54.941Z,100233.44
2023-04-15T16:15:26.122Z,100238.75
2023-04-15T16:17:52.599Z,100242.72
2023-04-15T16:20:19.012Z,100243.28
2023-04-15T16:22:45.438Z,100234.84
2023-04-15T16:25:11.918Z,100251.31
2023-04-15T16:30:08.793Z,100250.31
2023-04-15T16:32:35.953Z,100254.25
2023-04-15T16:35:03.243Z,100266.94
2023-04-15T16:37:29.569Z,100263.28
2023-04-15T16:39:55.873Z,100263.28
2023-04-15T16:42:22.181Z,100273.41
2023-04-15T16:44:48.557Z,100271.16
2023-04-15T16:47:15.007Z,100257.59
2023-04-15T16:49:41.359Z,100268.03
2023-04-15T16:52:07.942Z,100273.34
2023-04-15T16:54:36.477Z,100268.69
2023-04-15T16:57:03.351Z,100272.66
2023-04-15T16:59:29.716Z,100279.13
2023-04-15T17:01:56.216Z,100287.06
2023-04-15T17:04:22.790Z,100280.16
2023-04-15T17:06:49.260Z,100282.75
2023-04-15T17:09:15.816Z,100285.16
2023-04-15T17:11:44.319Z,100290.69
2023-04-15T17:14:10.854Z,100288.91
2023-04-15T17:16:37.533Z,100297.13
2023-04-15T17:19:04.103Z,100295.00
2023-04-15T17:21:31.732Z,100296.13
2023-04-15T17:23:58.126Z,100299.00
2023-04-15T17:26:24.792Z,100300.66
2023-04-15T17:28:51.184Z,100306.75
2023-04-15T17:31:17.780Z,100306.94
2023-04-15T17:34:00.277Z,100313.59
2023-04-15T17:36:31.577Z,100310.75
2023-04-15T17:38:58.018Z,100309.91
2023-04-15T17:41:24.670Z,100321.59
2023-04-15T17:43:51.105Z,100319.44
2023-04-15T17:46:19.078Z,100331.88
2023-04-15T17:48:46.406Z,100342.41
2023-04-15T17:51:13.225Z,100337.47
2023-04-15T17:53:39.605Z,100336.06
2023-04-15T17:56:06.018Z,100343.00
2023-04-15T17:58:32.381Z,100343.81
2023-04-15T18:00:58.783Z,100353.44
2023-04-15T18:03:26.703Z,100352.25
2023-04-15T18:05:53.293Z,100366.69
2023-04-15T18:08:19.892Z,100364.84
2023-04-15T18:10:46.297Z,100368.72
2023-04-15T18:13:12.602Z,100375.44
2023-04-15T18:15:39.130Z,100384.78
2023-04-15T18:18:05.647Z,100386.88
2023-04-15T18:20:33.397Z,100385.56
2023-04-15T18:22:59.715Z,100389.50
2023-04-15T18:25:26.308Z,100390.38
2023-04-15T18:27:52.720Z,100399.47
2023-04-15T18:30:19.112Z,100394.25
2023-04-15T18:32:45.520Z,100399.25
2023-04-15T18:35:11.991Z,100406.44
2023-04-15T18:37:38.415Z,100418.00
2023-04-15T18:40:07.756Z,100414.94
2023-04-15T18:42:34.072Z,100414.47
2023-04-15T18:45:00.767Z,100426.50
2023-04-15T18:47:27.778Z,100435.25
2023-04-15T18:49:54.272Z,100433.28
2023-04-15T18:52:21.448Z,100430.28
2023-04-15T18:54:47.794Z,100438.31
2023-04-15T18:57:14.160Z,100440.34
2023-04-15T18:59:46.912Z,100446.22
2023-04-15T19:02:13.325Z,100446.72
2023-04-15T19:04:39.682Z,100445.28
2023-04-15T19:07:07.241Z,100454.97
2023-04-15T19:09:33.945Z,100458.63
2023-04-15T19:12:00.286Z,100463.75
2023-04-15T19:14:26.856Z,100467.50
2023-04-15T19:16:53.250Z,100461.34
2023-04-15T19:19:19.741Z,100469.59
2023-04-15T19:21:50.034Z,100467.16
2023-04-15T19:24:17.909Z,100473.63
2023-04-15T19:26:47.116Z,100471.44
2023-04-15T19:29:13.474Z,100479.09
2023-04-15T19:31:39.981Z,100477.63
2023-04-15T19:34:06.622Z,100473.75
2023-04-15T19:36:33.240Z,100482.69
2023-04-15T19:39:01.150Z,100474.41
2023-04-15T19:41:27.675Z,100476.03
2023-04-15T19:43:54.078Z,100484.97
2023-04-15T19:46:20.595Z,100483.22
2023-04-15T19:48:47.091Z,100488.31
2023-04-15T19:51:13.452Z,100476.09
2023-04-15T19:53:40.636Z,100484.25
2023-04-15T19:56:07.013Z,100480.88
2023-04-15T19:58:33.416Z,100486.09
2023-04-15T20:01:01.333Z,100481.78
2023-04-15T20:03:27.898Z,100485.03
2023-04-15T20:05:54.414Z,100484.91
2023-04-15T20:08:20.823Z,100491.09
2023-04-15T20:10:47.167Z,100489.03
2023-04-15T20:13:13.561Z,100486.22
2023-04-15T20:15:39.948Z,100498.72
2023-04-15T20:18:06.277Z,100493.88
2023-04-15T20:20:34.401Z,100490.72
2023-04-15T20:23:00.736Z,100497.78
2023-04-15T20:25:27.112Z,100501.91
2023-04-15T20:27:53.537Z,100497.31
2023-04-15T20:30:20.091Z,100497.28
2023-04-15T20:32:46.514Z,100500.94
2023-04-15T20:35:12.917Z,100499.47
2023-04-15T20:37:40.265Z,100508.50
2023-04-15T20:40:07.203Z,100511.16
2023-04-15T20:42:34.340Z,100508.41
2023-04-15T20:45:01.244Z,100517.50
2023-04-15T20:47:27.791Z,100513.38
2023-04-15T20:49:54.235Z,100514.09
2023-04-15T20:52:20.668Z,100515.47
2023-04-15T20:54:47.188Z,100518.63
2023-04-15T20:57:13.490Z,100524.19
2023-04-15T20:59:39.780Z,100514.44
2023-04-15T21:02:06.675Z,100518.22
2023-04-15T21:04:33.067Z,100526.03
2023-04-15T21:06:59.352Z,100530.63
2023-04-15T21:09:25.732Z,100536.81
2023-04-15T21:14:21.399Z,100527.09
2023-04-15T21:16:47.952Z,100540.34
2023-04-15T21:19:14.501Z,100534.50
2023-04-15T21:21:40.896Z,100546.53
2023-04-15T21:24:07.773Z,100550.81
2023-04-15T21:26:35.735Z,100548.16
2023-04-15T21:29:02.603Z,100554.22
2023-04-15T21:31:29.097Z,100553.72
2023-04-15T21:33:55.436Z,100553.72
2023-04-15T21:36:21.782Z,100559.09
2023-04-15T21:38:48.146Z,100564.97
2023-04-15T21:41:14.494Z,100564.22
2023-04-15T21:43:40.781Z,100559.84
2023-04-15T21:46:23.204Z,100569.13
2023-04-15T21:48:53.331Z,100567.16
2023-04-15T21:51:19.814Z,100579.56
2023-04-15T21:53:46.244Z,100584.03
2023-04-15T21:56:12.610Z,100592.31
2023-04-15T21:58:38.991Z,100584.28
2023-04-15T22:01:05.495Z,100587.94
2023-04-15T22:03:34.052Z,100585.63
2023-04-15T22:06:04.172Z,100596.81
2023-04-15T22:08:38.254Z,100595.38
2023-04-15T22:11:20.870Z,100593.56
2023-04-15T22:13:47.302Z,100597.56
2023-04-15T22:16:13.883Z,100599.00
2023-04-15T22:18:40.218Z,100603.63
2023-04-15T22:21:06.575Z,100612.16
2023-04-15T22:23:32.956Z,100612.66
2023-04-15T22:25:59.603Z,100620.19
2023-04-15T22:28:25.919Z,100626.16
2023-04-15T22:30:54.481Z,100630.53
2023-04-15T22:33:20.963Z,100627.38
2023-04-15T22:35:47.331Z,100625.31
2023-04-15T22:38:13.684Z,100628.13
2023-04-15T22:40:40.047Z,100630.41
2023-04-15T22:43:06.403Z,100642.59
2023-04-15T22:45:32.781Z,100641.50
2023-04-15T22:47:59.228Z,100645.97
2023-04-15T22:50:25.642Z,100654.50
2023-04-15T22:52:51.974Z,100648.28
2023-04-15T22:55:18.471Z,100645.59
2023-04-15T22:57:44.869Z,100659.09
2023-04-15T23:00:11.691Z,100650.84
2023-04-15T23:02:38.150Z,100652.06
2023-04-15T23:05:12.036Z,100651.69
2023-04-15T23:07:39.065Z,100656.69
2023-04-15T23:10:06.064Z,100658.38
2023-04-15T23:12:32.435Z,100658.03
2023-04-15T23:14:58.788Z,100660.09
2023-04-15T23:17:25.308Z,100654.88
2023-04-15T23:19:51.829Z,100658.16
2023-04-15T23:22:18.362Z,100663.25
2023-04-15T23:24:44.733Z,100656.94
2023-04-15T23:27:11.074Z,100665.56
2023-04-15T23:29:37.476Z,100657.44
2023-04-15T23:32:03.985Z,100649.88
2023-04-15T23:34:30.386Z,100671.53
2023-04-15T23:36:56.762Z,100675.78
2023-04-15T23:39:23.184Z,100677.13
2023-04-15T23:41:49.542Z,100680.53
2023-04-15T23:44:15.894Z,100678.97
2023-04-15T23:46:42.219Z,100680.88
2023-04-15T23:49:08.691Z,100674.22
2023-04-15T23:51:35.221Z,100672.63
2023-04-15T23:54:01.552Z,100670.31
2023-04-15T23:56:27.885Z,100669.13
2023-04-15T23:58:54.279Z,100655.72
